Wisecarver (157, 524) Station Data

Red Flag Warning: No
Fire Weather Zone: 250
SDGE Region: Mountain Empire
Lat/Lon: 32.732/-116.762

Observations

Time Wind Speed/Gust Temp(F) RH Fuel Moist Fuel Temp(F) Dewpt(F) Tmax(F) Tmin(F) Accum Precip 10-min Precip SL Press(mb)
5/24 8:20am 131 3 G 4 71° 23% - - 32° 74.6° 62° - - -
5/24 8:10am 105 2 G 3 71° 23% - - 31° 74.6° 62° - - -
5/24 8:00am 167 4 G 6 69° 23% - - 29° 74.6° 62° - - -
5/24 7:50am 182 3 G 6 69° 23% - - 30° 74.6° 62° - - -
5/24 7:40am 192 5 G 8 69° 24% - - 30° 74.6° 62° - - -
5/24 7:30am 206 6 G 8 69° 22% - - 28° 74.6° 62° - - -
5/24 7:20am 194 3 G 5 67° 27% - - 32° 74.6° 62° - - -
5/24 7:10am 175 2 G 6 66° 29% - - 33° 74.6° 62° - - -
5/24 7:00am 125 2 G 6 64° 33% - - 34° 74.6° 62° - - -
5/24 6:50am 198 7 G 11 66° 28% - - 32° 74.6° 64.3° - - -
5/24 6:40am 236 4 G 8 65° 27% - - 30° 74.6° 64.3° - - -
5/24 6:30am 285 3 G 6 71° 18% - - 26° 74.6° 67.5° - - -
5/24 6:20am 339 2 G 4 74° 14% - - 22° 74.6° 68.3° - - -
5/24 6:10am 87 0 G 0 74° 14% - - 22° 74.6° 68.3° - - -
5/24 6:00am 101 1 G 1 72° 15% - - 21° 72.9° 68.3° - - -
5/24 5:50am 120 1 G 2 72° 15% - - 21° 72.3° 68.3° - - -
5/24 5:40am 104 1 G 2 72° 15% - - 21° 72.2° 68.3° - - -
5/24 5:30am 101 2 G 3 72° 15% - - 21° 72.2° 68.3° - - -
5/24 5:20am 94 2 G 3 72° 14% - - 20° 72.2° 68.3° - - -
5/24 5:10am 124 2 G 3 72° 14% - - 19° 72.2° 68.3° - - -
5/24 5:00am 111 3 G 4 72° 13% - - 18° 72.2° 68.3° - - -
5/24 4:50am 113 2 G 3 71° 13% - - 17° 72.2° 68.3° - - -
5/24 4:40am 113 2 G 3 72° 12% - - 17° 72.2° 68.3° - - -
5/24 4:30am 145 2 G 2 72° 13% - - 17° 72.2° 68.3° - - -
5/24 4:20am 170 2 G 2 71° 14% - - 19° 72.2° 68.3° - - -
5/24 4:10am 159 1 G 2 71° 15% - - 21° 72.2° 68.3° - - -
5/24 4:00am 173 2 G 3 70° 19% - - 25° 72.2° 68.3° - - -
5/24 3:50am 216 2 G 2 71° 21% - - 28° 72.2° 68.3° - - -
5/24 3:40am 215 2 G 3 71° 21% - - 28° 72.2° 68.3° - - -
5/24 3:30am 235 1 G 2 70° 22% - - 29° 72.2° 68.3° - - -
5/24 3:20am 203 1 G 2 70° 24% - - 31° 72.2° 68.3° - - -
5/24 3:10am 206 2 G 3 71° 24% - - 33° 72.2° 68.3° - - -
5/24 3:00am 227 3 G 4 71° 25% - - 34° 72.2° 68.3° - - -
5/24 2:50am 191 1 G 3 71° 28% - - 37° 72.2° 68.3° - - -
5/24 2:40am 93 1 G 2 72° 27% - - 36° 72.2° 68.3° - - -
5/24 2:30am 88 1 G 2 72° 27% - - 36° 72.2° 68.3° - - -
5/24 2:20am 58 1 G 1 72° 27% - - 36° 72.2° 68.3° - - -
5/24 2:10am 352 2 G 2 71° 27% - - 35° 72.2° 68.3° - - -
5/24 2:00am 340 1 G 2 71° 25% - - 34° 72.2° 68.3° - - -
5/24 1:50am 318 0 G 1 72° 23% - - 32° 72.2° 68.3° - - -
5/24 1:40am 118 1 G 3 72° 22% - - 31° 72.2° 68.3° - - -
5/24 1:30am 76 1 G 2 72° 23% - - 32° 72.1° 68.3° - - -
5/24 1:20am 131 1 G 2 72° 24% - - 33° 71.8° 68.3° - - -
5/24 1:10am 105 2 G 3 71° 27% - - 35° 71.8° 68.3° - - -
5/24 1:00am 103 2 G 3 70° 29% - - 36° 70.9° 68.3° - - -
5/24 12:50am 92 3 G 5 70° 30% - - 38° 70.7° 68.3° - - -
5/24 12:40am 100 3 G 4 70° 35% - - 41° 70.4° 68.3° - - -
5/24 12:30am 112 2 G 3 69° 41% - - 45° 70° 68.3° - - -
5/24 12:20am 67 2 G 3 69° 42% - - 45° 69.5° 68.3° - - -
5/24 12:10am 153 1 G 2 69° 43% - - 45° 69.2° 68.3° - - -
5/24 12:00am 194 2 G 3 69° 43% - - 45° 86.9° 68° - - -
5/23 11:50pm 224 2 G 3 70° 41% - - 46° 86.9° 68.7° - - -
5/23 11:40pm 240 3 G 4 70° 39% - - 44° 86.9° 68.7° - - -
5/23 11:30pm 247 2 G 3 70° 36% - - 42° 86.9° 68.7° - - -
5/23 11:20pm 199 1 G 2 70° 36% - - 42° 86.9° 68.7° - - -
5/23 11:10pm 298 1 G 2 70° 34% - - 40° 86.9° 68.7° - - -
5/23 11:00pm 270 1 G 2 70° 35% - - 41° 86.9° 68.7° - - -
5/23 10:50pm 108 1 G 2 70° 39% - - 43° 86.9° 68.7° - - -
5/23 10:40pm 90 1 G 1 70° 41% - - 45° 86.9° 68.7° - - -
5/23 10:30pm 54 1 G 2 70° 40% - - 45° 86.9° 68.7° - - -
5/23 10:20pm 20 1 G 2 69° 42% - - 45° 86.9° 68.7° - - -
5/23 10:10pm 273 2 G 4 69° 47% - - 48° 86.9° 68.7° - - -
5/23 10:00pm 44 1 G 2 69° 48% - - 49° 86.9° 68.8° - - -
5/23 9:50pm 62 1 G 2 69° 47% - - 48° 86.9° 68.8° - - -
5/23 9:40pm 97 1 G 2 69° 47% - - 48° 86.9° 68.8° - - -
5/23 9:30pm 64 2 G 2 69° 47% - - 48° 86.9° 69° - - -
5/23 9:20pm 95 1 G 3 70° 46% - - 48° 86.9° 69.1° - - -
5/23 9:10pm 145 2 G 2 70° 46% - - 48° 86.9° 69.1° - - -
5/23 9:00pm 107 2 G 2 70° 46% - - 48° 86.9° 69.1° - - -
5/23 8:50pm 75 1 G 1 70° 47% - - 48° 86.9° 69.1° - - -
5/23 8:40pm 264 1 G 2 69° 47% - - 48° 86.9° 69.1° - - -
5/23 8:30pm 290 2 G 3 70° 46% - - 48° 86.9° 69.1° - - -
5/23 8:20pm 340 2 G 3 70° 46% - - 48° 86.9° 69.3° - - -
5/23 8:10pm 355 3 G 3 71° 44% - - 47° 86.9° 69.5° - - -
5/23 8:00pm 10 2 G 4 70° 47% - - 49° 86.9° 69.5° - - -
5/23 7:50pm 23 3 G 5 71° 47% - - 49° 86.9° 69.5° - - -
5/23 7:40pm 44 3 G 5 71° 46% - - 49° 86.9° 69.5° - - -
5/23 7:30pm 65 4 G 5 71° 48% - - 50° 86.9° 69.5° - - -
5/23 7:20pm 57 2 G 3 71° 48% - - 51° 86.9° 69.5° - - -
5/23 7:10pm 36 2 G 4 72° 47% - - 51° 86.9° 69.5° - - -
5/23 7:00pm 0 2 G 4 74° 42% - - 50° 86.9° 69.5° - - -
5/23 6:50pm 313 3 G 7 75° 41% - - 50° 86.9° 69.5° - - -
5/23 6:40pm 253 2 G 5 75° 43% - - 51° 86.9° 69.5° - - -
5/23 6:30pm 275 4 G 7 77° 37% - - 49° 86.9° 69.5° - - -
5/23 6:20pm 286 4 G 8 78° 35% - - 48° 86.9° 69.5° - - -
5/23 6:10pm 302 4 G 8 78° 34% - - 48° 86.9° 69.5° - - -
5/23 6:00pm 321 3 G 7 79° 33% - - 48° 86.9° 69.5° - - -
5/23 5:50pm 309 4 G 7 79° 33% - - 47° 86.9° 69.5° - - -
5/23 5:40pm 313 4 G 8 79° 32% - - 47° 86.9° 69.5° - - -
5/23 5:30pm 334 4 G 8 79° 32% - - 47° 86.9° 69.5° - - -
5/23 5:20pm 340 4 G 8 80° 33% - - 48° 86.9° 69.5° - - -
5/23 5:10pm 355 5 G 8 79° 33% - - 47° 86.9° 69.5° - - -
5/23 5:00pm 5 4 G 8 78° 33% - - 47° 86.9° 69.5° - - -
5/23 4:50pm 358 4 G 8 79° 33% - - 47° 86.9° 69.5° - - -
5/23 4:40pm 337 5 G 8 78° 33% - - 47° 86.9° 69.5° - - -
5/23 4:30pm 345 5 G 10 78° 34% - - 47° 86.9° 69.5° - - -
5/23 4:20pm 317 5 G 9 79° 34% - - 48° 86.9° 69.5° - - -
5/23 4:10pm 322 6 G 10 78° 34% - - 48° 86.9° 69.5° - - -
5/23 4:00pm 317 6 G 12 78° 30% - - 44° 86.9° 69.5° - - -
5/23 3:50pm 326 6 G 12 78° 30% - - 44° 86.9° 69.5° - - -
5/23 3:40pm 339 6 G 11 78° 34% - - 48° 86.9° 69.5° - - -
5/23 3:30pm 339 6 G 10 78° 36% - - 49° 86.9° 69.5° - - -
5/23 3:20pm 323 5 G 10 79° 40% - - 52° 86.9° 69.5° - - -
5/23 3:10pm 309 4 G 8 79° 41% - - 53° 86.9° 69.5° - - -
5/23 3:00pm 301 5 G 11 78° 44% - - 54° 86.9° 69.5° - - -
5/23 2:50pm 301 5 G 10 79° 43% - - 55° 86.9° 69.5° - - -
5/23 2:40pm 309 5 G 11 78° 45% - - 55° 86.9° 69.5° - - -
5/23 2:30pm 312 6 G 10 78° 45% - - 55° 86.9° 69.5° - - -
5/23 2:20pm 322 5 G 9 78° 44% - - 55° 86.9° 69.5° - - -
5/23 2:10pm 313 5 G 9 79° 43% - - 55° 86.9° 69.5° - - -
5/23 2:00pm 302 5 G 9 79° 43% - - 54° 86.9° 69.5° - - -
5/23 1:50pm 310 4 G 9 79° 42% - - 54° 86.9° 69.5° - - -
5/23 1:40pm 333 4 G 8 79° 42% - - 54° 86.9° 69.5° - - -
5/23 1:30pm 313 4 G 10 80° 40% - - 54° 86.9° 69.5° - - -
5/23 1:20pm 324 5 G 8 80° 39% - - 53° 86.9° 69.5° - - -
5/23 1:10pm 330 3 G 8 80° 38% - - 52° 86.9° 69.5° - - -
5/23 1:00pm 337 4 G 9 80° 37% - - 52° 86.9° 69.5° - - -
5/23 12:50pm 330 5 G 9 81° 35% - - 51° 86.9° 69.5° - - -
5/23 12:40pm 327 5 G 10 82° 31% - - 49° 86.9° 69.5° - - -
5/23 12:30pm 326 4 G 9 83° 29% - - 47° 86.9° 69.5° - - -
5/23 12:20pm 312 5 G 8 83° 29% - - 47° 86.9° 69.5° - - -
5/23 12:10pm 325 5 G 8 84° 29% - - 48° 86.9° 69.5° - - -
5/23 12:00pm 320 5 G 9 84° 27% - - 47° 86.9° 69.5° - - -
5/23 11:50am 331 6 G 10 84° 26% - - 45° 86.9° 69.5° - - -
5/23 11:40am 278 5 G 12 86° 25% - - 46° 86.9° 69.5° - - -
5/23 11:30am 242 5 G 9 85° 24% - - 44° 86.4° 69.5° - - -
5/23 11:20am 224 6 G 10 84° 24% - - 44° 86.4° 69.5° - - -
5/23 11:10am 227 6 G 12 85° 23% - - 43° 86.4° 69.5° - - -
5/23 11:00am 229 6 G 11 86° 22% - - 42° 86.4° 69.5° - - -
5/23 10:50am 235 4 G 8 85° 22% - - 42° 85.8° 69.5° - - -
5/23 10:40am 222 5 G 8 85° 22% - - 42° 85.8° 69.5° - - -
5/23 10:30am 297 3 G 5 85° 23% - - 43° 85.7° 69.5° - - -
5/23 10:20am 357 2 G 5 85° 22% - - 42° 85.4° 69.5° - - -
5/23 10:10am 56 2 G 4 85° 23% - - 42° 85° 69.5° - - -
5/23 10:00am 6 2 G 5 85° 23% - - 43° 85° 69.5° - - -
5/23 9:50am 16 1 G 4 84° 22% - - 41° 84.3° 69.5° - - -
5/23 9:40am 6 1 G 4 83° 22% - - 41° 83.9° 69.5° - - -
5/23 9:30am 303 1 G 4 83° 23% - - 42° 83.4° 69.5° - - -
5/23 9:20am 239 1 G 3 81° 23% - - 40° 82.2° 69.5° - - -
5/23 9:10am 255 2 G 3 82° 23% - - 40° 82.2° 69.5° - - -
5/23 9:00am 259 1 G 4 81° 23% - - 39° 82° 69.5° - - -
5/23 8:50am 276 1 G 3 79° 24% - - 40° 80.7° 69.5° - - -
5/23 8:40am 261 1 G 2 78° 26% - - 40° 80.7° 69.5° - - -
5/23 8:30am 268 1 G 3 78° 25% - - 39° 80.7° 69.5° - - -
5/23 8:20am 260 1 G 2 78° 24% - - 38° 80.7° 69.5° - - -
5/23 8:10am 261 2 G 2 78° 22% - - 37° 80.7° 69.5° - - -
5/23 8:00am 289 0 G 1 79° 21% - - 36° 80.7° 69.5° - - -
5/23 7:50am 226 0 G 1 75° 23% - - 35° 77.4° 69.5° - - -
5/23 7:40am 251 2 G 2 74° 21% - - 32° 74.5° 69.5° - - -
5/23 7:30am 245 1 G 2 73° 22% - - 32° 74.5° 69.5° - - -
5/23 7:20am 250 1 G 2 74° 22% - - 32° 74.4° 69.5° - - -
5/23 7:10am 317 1 G 1 74° 20% - - 30° 74.4° 69.5° - - -
5/23 7:00am 343 1 G 2 74° 20% - - 30° 74.4° 69.5° - - -
5/23 6:50am 101 1 G 2 72° 22% - - 32° 73.9° 69.5° - - -
5/23 6:40am 113 2 G 3 71° 25% - - 33° 73.9° 69.5° - - -
5/23 6:30am 93 2 G 2 72° 25% - - 34° 73.9° 69.5° - - -
5/23 6:20am 80 1 G 2 72° 25% - - 34° 73.9° 69.5° - - -
5/23 6:10am 27 1 G 2 72° 25% - - 34° 73.9° 69.5° - - -
5/23 6:00am 323 2 G 2 71° 25% - - 33° 73.9° 69.5° - - -